Terminal Aerodrome Forecast
Issued by NWS

Home | Current Version | Previous Version | Graphics & Text | Print | Product List | Glossary On
Versions: 1 2 3 4 5 6 7 8 9 10 11 12 13 14 15 16 17 18 19 20 21 22
000
FTUS43 KABR 220900 AAB
TAFPIR
TAF AMD
KPIR 220951Z 2210/2306 VRB04KT 3SM -RA BR FEW015 BKN022 OVC030
      TEMPO 2210/2212 -FZRA
     FM221500 31013KT 5SM -RASN OVC015
     FM230000 33015KT 2SM -SN BR OVC008=

USA.gov is the U.S. government's official web portal to all federal, state and local government web resources and services.